sensor_id;sensor_type;location;lat;lon;timestamp;pressure;altitude;pressure_sealevel;temperature;humidity
77770;BME280;66961;51.482;9.160;2023-05-19T00:00:12;100375.97;;;5.73;77.39
77770;BME280;66961;51.482;9.160;2023-05-19T00:02:38;100365.72;;;5.70;78.04
77770;BME280;66961;51.482;9.160;2023-05-19T00:05:04;100368.94;;;5.73;78.19
77770;BME280;66961;51.482;9.160;2023-05-19T00:07:30;100364.28;;;5.65;77.23
77770;BME280;66961;51.482;9.160;2023-05-19T00:09:55;100371.34;;;5.65;77.70
77770;BME280;66961;51.482;9.160;2023-05-19T00:12:21;100359.97;;;5.64;77.78
77770;BME280;66961;51.482;9.160;2023-05-19T00:14:47;100370.72;;;5.61;77.60
77770;BME280;66961;51.482;9.160;2023-05-19T00:17:12;100359.47;;;5.59;77.73
77770;BME280;66961;51.482;9.160;2023-05-19T00:19:38;100356.75;;;5.61;77.45
77770;BME280;66961;51.482;9.160;2023-05-19T00:22:03;100357.00;;;5.69;77.32
77770;BME280;66961;51.482;9.160;2023-05-19T00:24:28;100359.63;;;5.80;77.30
77770;BME280;66961;51.482;9.160;2023-05-19T00:26:53;100358.19;;;5.76;77.24
77770;BME280;66961;51.482;9.160;2023-05-19T00:29:19;100360.69;;;5.67;76.99
77770;BME280;66961;51.482;9.160;2023-05-19T00:31:44;100349.69;;;5.61;77.36
77770;BME280;66961;51.482;9.160;2023-05-19T00:34:09;100343.84;;;5.69;77.93
77770;BME280;66961;51.482;9.160;2023-05-19T00:36:34;100350.91;;;5.69;77.39
77770;BME280;66961;51.482;9.160;2023-05-19T00:39:00;100348.00;;;5.60;77.65
77770;BME280;66961;51.482;9.160;2023-05-19T00:41:25;100353.84;;;5.53;77.67
77770;BME280;66961;51.482;9.160;2023-05-19T00:43:50;100352.88;;;5.43;77.10
77770;BME280;66961;51.482;9.160;2023-05-19T00:46:17;100346.72;;;5.31;78.33
77770;BME280;66961;51.482;9.160;2023-05-19T00:48:43;100352.44;;;5.25;78.64
77770;BME280;66961;51.482;9.160;2023-05-19T00:51:08;100345.28;;;5.16;78.27
77770;BME280;66961;51.482;9.160;2023-05-19T00:53:34;100348.97;;;5.13;78.20
77770;BME280;66961;51.482;9.160;2023-05-19T00:55:59;100347.75;;;5.06;79.44
77770;BME280;66961;51.482;9.160;2023-05-19T00:58:26;100352.72;;;4.98;79.08
77770;BME280;66961;51.482;9.160;2023-05-19T01:00:51;100351.50;;;4.91;79.72
77770;BME280;66961;51.482;9.160;2023-05-19T01:03:17;100353.16;;;4.92;80.08
77770;BME280;66961;51.482;9.160;2023-05-19T01:05:42;100352.78;;;4.85;80.07
77770;BME280;66961;51.482;9.160;2023-05-19T01:08:08;100349.63;;;4.80;80.39
77770;BME280;66961;51.482;9.160;2023-05-19T01:10:33;100348.91;;;4.78;80.80
77770;BME280;66961;51.482;9.160;2023-05-19T01:12:59;100343.03;;;4.75;80.33
77770;BME280;66961;51.482;9.160;2023-05-19T01:15:25;100335.84;;;4.65;80.69
77770;BME280;66961;51.482;9.160;2023-05-19T01:18:01;100337.13;;;4.60;81.56
77770;BME280;66961;51.482;9.160;2023-05-19T01:20:40;100345.00;;;4.60;81.49
77770;BME280;66961;51.482;9.160;2023-05-19T01:26:15;100329.69;;;4.54;80.50
77770;BME280;66961;51.482;9.160;2023-05-19T01:31:25;100330.44;;;4.56;79.83
77770;BME280;66961;51.482;9.160;2023-05-19T01:33:52;100321.88;;;4.41;80.16
77770;BME280;66961;51.482;9.160;2023-05-19T01:36:19;100340.41;;;4.51;80.24
77770;BME280;66961;51.482;9.160;2023-05-19T01:38:49;100346.31;;;4.42;81.10
77770;BME280;66961;51.482;9.160;2023-05-19T01:41:15;100348.03;;;4.30;81.88
77770;BME280;66961;51.482;9.160;2023-05-19T01:43:43;100346.78;;;4.23;81.77
77770;BME280;66961;51.482;9.160;2023-05-19T01:46:08;100335.56;;;4.21;81.60
77770;BME280;66961;51.482;9.160;2023-05-19T01:48:34;100337.34;;;4.20;81.73
77770;BME280;66961;51.482;9.160;2023-05-19T01:51:00;100341.84;;;4.18;81.63
77770;BME280;66961;51.482;9.160;2023-05-19T01:53:26;100339.97;;;4.20;81.64
77770;BME280;66961;51.482;9.160;2023-05-19T01:55:53;100351.09;;;4.24;81.91
77770;BME280;66961;51.482;9.160;2023-05-19T01:58:44;100339.47;;;4.15;81.42
77770;BME280;66961;51.482;9.160;2023-05-19T02:01:42;100346.09;;;4.08;81.57
77770;BME280;66961;51.482;9.160;2023-05-19T02:04:44;100337.59;;;4.05;83.18
77770;BME280;66961;51.482;9.160;2023-05-19T02:10:05;100352.69;;;4.14;82.41
77770;BME280;66961;51.482;9.160;2023-05-19T02:12:35;100333.50;;;4.01;82.38
77770;BME280;66961;51.482;9.160;2023-05-19T02:15:06;100342.34;;;3.99;82.34
77770;BME280;66961;51.482;9.160;2023-05-19T02:17:34;100349.56;;;3.96;82.24
77770;BME280;66961;51.482;9.160;2023-05-19T02:20:01;100340.22;;;4.05;82.99
77770;BME280;66961;51.482;9.160;2023-05-19T02:22:26;100336.22;;;4.12;82.44
77770;BME280;66961;51.482;9.160;2023-05-19T02:24:52;100345.03;;;4.11;82.30
77770;BME280;66961;51.482;9.160;2023-05-19T02:27:17;100338.44;;;4.05;81.53
77770;BME280;66961;51.482;9.160;2023-05-19T02:29:42;100329.31;;;3.98;81.46
77770;BME280;66961;51.482;9.160;2023-05-19T02:32:08;100337.41;;;3.95;81.64
77770;BME280;66961;51.482;9.160;2023-05-19T02:34:33;100330.69;;;3.91;81.45
77770;BME280;66961;51.482;9.160;2023-05-19T02:36:58;100332.78;;;3.86;81.83
77770;BME280;66961;51.482;9.160;2023-05-19T02:39:24;100326.81;;;3.84;81.59
77770;BME280;66961;51.482;9.160;2023-05-19T02:41:49;100335.09;;;3.78;82.15
77770;BME280;66961;51.482;9.160;2023-05-19T02:44:14;100330.59;;;3.67;82.42
77770;BME280;66961;51.482;9.160;2023-05-19T02:46:39;100334.59;;;3.60;82.64
77770;BME280;66961;51.482;9.160;2023-05-19T02:49:05;100338.78;;;3.62;83.58
77770;BME280;66961;51.482;9.160;2023-05-19T02:51:30;100333.03;;;3.57;83.79
77770;BME280;66961;51.482;9.160;2023-05-19T02:53:55;100333.66;;;3.61;83.65
77770;BME280;66961;51.482;9.160;2023-05-19T02:56:21;100334.50;;;3.61;83.58
77770;BME280;66961;51.482;9.160;2023-05-19T02:58:46;100327.78;;;3.57;82.92
77770;BME280;66961;51.482;9.160;2023-05-19T03:01:11;100328.41;;;3.48;82.85
77770;BME280;66961;51.482;9.160;2023-05-19T03:03:36;100332.28;;;3.43;83.48
77770;BME280;66961;51.482;9.160;2023-05-19T03:06:02;100329.13;;;3.38;82.94
77770;BME280;66961;51.482;9.160;2023-05-19T03:08:27;100330.06;;;3.37;83.55
77770;BME280;66961;51.482;9.160;2023-05-19T03:10:53;100327.66;;;3.33;82.96
77770;BME280;66961;51.482;9.160;2023-05-19T03:13:18;100331.53;;;3.41;83.46
77770;BME280;66961;51.482;9.160;2023-05-19T03:15:43;100332.59;;;3.38;83.32
77770;BME280;66961;51.482;9.160;2023-05-19T03:18:09;100331.63;;;3.39;82.98
77770;BME280;66961;51.482;9.160;2023-05-19T03:20:34;100337.41;;;3.44;82.76
77770;BME280;66961;51.482;9.160;2023-05-19T03:22:59;100331.00;;;3.36;82.58
77770;BME280;66961;51.482;9.160;2023-05-19T03:25:25;100325.97;;;3.32;82.31
77770;BME280;66961;51.482;9.160;2023-05-19T03:27:50;100333.50;;;3.24;82.48
77770;BME280;66961;51.482;9.160;2023-05-19T03:30:15;100337.25;;;3.20;82.98
77770;BME280;66961;51.482;9.160;2023-05-19T03:32:41;100336.22;;;3.10;82.79
77770;BME280;66961;51.482;9.160;2023-05-19T03:35:06;100331.81;;;3.11;83.85
77770;BME280;66961;51.482;9.160;2023-05-19T03:37:31;100342.06;;;3.14;84.20
77770;BME280;66961;51.482;9.160;2023-05-19T03:39:58;100334.34;;;3.25;83.68
77770;BME280;66961;51.482;9.160;2023-05-19T03:42:23;100338.09;;;3.21;82.59
77770;BME280;66961;51.482;9.160;2023-05-19T03:44:48;100337.50;;;3.30;82.88
77770;BME280;66961;51.482;9.160;2023-05-19T03:47:13;100339.91;;;3.33;82.12
77770;BME280;66961;51.482;9.160;2023-05-19T03:49:39;100335.06;;;3.27;82.99
77770;BME280;66961;51.482;9.160;2023-05-19T03:52:04;100339.56;;;3.25;83.42
77770;BME280;66961;51.482;9.160;2023-05-19T03:54:30;100340.50;;;3.24;83.56
77770;BME280;66961;51.482;9.160;2023-05-19T03:56:55;100336.31;;;3.21;83.17
77770;BME280;66961;51.482;9.160;2023-05-19T03:59:20;100340.72;;;3.21;83.12
77770;BME280;66961;51.482;9.160;2023-05-19T04:01:45;100336.53;;;3.18;83.80
77770;BME280;66961;51.482;9.160;2023-05-19T04:04:11;100341.66;;;3.20;83.87
77770;BME280;66961;51.482;9.160;2023-05-19T04:06:36;100341.13;;;3.15;84.50
77770;BME280;66961;51.482;9.160;2023-05-19T04:09:02;100345.22;;;3.19;84.43
77770;BME280;66961;51.482;9.160;2023-05-19T04:11:27;100341.22;;;3.13;84.34
77770;BME280;66961;51.482;9.160;2023-05-19T04:13:53;100347.19;;;3.15;84.54
77770;BME280;66961;51.482;9.160;2023-05-19T04:16:18;100345.31;;;3.17;84.12
77770;BME280;66961;51.482;9.160;2023-05-19T04:18:43;100351.72;;;3.26;83.87
77770;BME280;66961;51.482;9.160;2023-05-19T04:21:08;100343.78;;;3.40;83.43
77770;BME280;66961;51.482;9.160;2023-05-19T04:23:34;100336.56;;;3.44;83.97
77770;BME280;66961;51.482;9.160;2023-05-19T04:25:59;100351.88;;;3.50;83.71
77770;BME280;66961;51.482;9.160;2023-05-19T04:28:24;100350.31;;;3.47;82.48
77770;BME280;66961;51.482;9.160;2023-05-19T04:30:49;100337.75;;;3.52;83.19
77770;BME280;66961;51.482;9.160;2023-05-19T04:33:15;100346.13;;;3.57;82.62
77770;BME280;66961;51.482;9.160;2023-05-19T04:35:40;100343.78;;;3.65;82.93
77770;BME280;66961;51.482;9.160;2023-05-19T04:38:06;100342.34;;;3.74;82.44
77770;BME280;66961;51.482;9.160;2023-05-19T04:40:31;100347.78;;;3.84;82.89
77770;BME280;66961;51.482;9.160;2023-05-19T04:42:56;100350.19;;;3.87;82.13
77770;BME280;66961;51.482;9.160;2023-05-19T04:45:21;100362.78;;;3.94;81.12
77770;BME280;66961;51.482;9.160;2023-05-19T04:47:47;100349.56;;;3.96;82.24
77770;BME280;66961;51.482;9.160;2023-05-19T04:50:12;100352.50;;;4.04;81.55
77770;BME280;66961;51.482;9.160;2023-05-19T04:52:39;100343.59;;;4.07;81.53
77770;BME280;66961;51.482;9.160;2023-05-19T04:55:04;100351.91;;;4.24;81.70
77770;BME280;66961;51.482;9.160;2023-05-19T04:57:30;100360.50;;;4.39;81.54
77770;BME280;66961;51.482;9.160;2023-05-19T04:59:55;100351.25;;;4.46;81.79
77770;BME280;66961;51.482;9.160;2023-05-19T05:02:20;100357.19;;;4.61;80.73
77770;BME280;66961;51.482;9.160;2023-05-19T05:04:45;100343.47;;;4.69;80.42
77770;BME280;66961;51.482;9.160;2023-05-19T05:07:11;100347.25;;;4.77;80.33
77770;BME280;66961;51.482;9.160;2023-05-19T05:09:36;100350.75;;;4.89;81.19
77770;BME280;66961;51.482;9.160;2023-05-19T05:12:02;100346.75;;;4.96;81.01
77770;BME280;66961;51.482;9.160;2023-05-19T05:14:27;100348.47;;;5.08;80.95
77770;BME280;66961;51.482;9.160;2023-05-19T05:16:53;100355.31;;;5.22;80.56
77770;BME280;66961;51.482;9.160;2023-05-19T05:19:19;100359.88;;;5.31;80.66
77770;BME280;66961;51.482;9.160;2023-05-19T05:21:44;100349.50;;;5.41;80.74
77770;BME280;66961;51.482;9.160;2023-05-19T05:24:10;100345.13;;;5.52;80.81
77770;BME280;66961;51.482;9.160;2023-05-19T05:26:36;100350.78;;;5.70;80.77
77770;BME280;66961;51.482;9.160;2023-05-19T05:29:02;100345.03;;;5.76;79.89
77770;BME280;66961;51.482;9.160;2023-05-19T05:31:27;100340.41;;;5.91;79.25
77770;BME280;66961;51.482;9.160;2023-05-19T05:33:53;100350.22;;;6.00;78.66
77770;BME280;66961;51.482;9.160;2023-05-19T05:36:18;100354.31;;;6.15;77.59
77770;BME280;66961;51.482;9.160;2023-05-19T05:38:43;100339.06;;;6.30;76.89
77770;BME280;66961;51.482;9.160;2023-05-19T05:41:08;100342.53;;;6.42;76.11
77770;BME280;66961;51.482;9.160;2023-05-19T05:43:34;100353.78;;;6.55;74.73
77770;BME280;66961;51.482;9.160;2023-05-19T05:45:59;100344.41;;;6.62;73.98
77770;BME280;66961;51.482;9.160;2023-05-19T05:48:25;100354.22;;;6.71;73.60
77770;BME280;66961;51.482;9.160;2023-05-19T05:50:51;100345.78;;;6.77;73.41
77770;BME280;66961;51.482;9.160;2023-05-19T05:53:18;100345.75;;;6.88;73.70
77770;BME280;66961;51.482;9.160;2023-05-19T05:55:46;100355.06;;;7.04;73.39
77770;BME280;66961;51.482;9.160;2023-05-19T05:58:11;100341.72;;;7.16;73.38
77770;BME280;66961;51.482;9.160;2023-05-19T06:00:37;100339.84;;;7.28;72.44
77770;BME280;66961;51.482;9.160;2023-05-19T06:03:02;100344.53;;;7.45;72.13
77770;BME280;66961;51.482;9.160;2023-05-19T06:05:28;100340.63;;;7.60;71.84
77770;BME280;66961;51.482;9.160;2023-05-19T06:07:53;100349.88;;;7.76;71.75
77770;BME280;66961;51.482;9.160;2023-05-19T06:10:18;100353.00;;;7.90;71.18
77770;BME280;66961;51.482;9.160;2023-05-19T06:12:44;100341.81;;;8.08;70.84
77770;BME280;66961;51.482;9.160;2023-05-19T06:15:09;100335.94;;;8.25;69.95
77770;BME280;66961;51.482;9.160;2023-05-19T06:17:34;100337.63;;;8.36;69.38
77770;BME280;66961;51.482;9.160;2023-05-19T06:20:00;100336.28;;;8.51;69.37
77770;BME280;66961;51.482;9.160;2023-05-19T06:22:26;100338.25;;;8.58;68.61
77770;BME280;66961;51.482;9.160;2023-05-19T06:24:51;100336.22;;;8.81;68.33
77770;BME280;66961;51.482;9.160;2023-05-19T06:27:16;100328.97;;;8.93;68.68
77770;BME280;66961;51.482;9.160;2023-05-19T06:29:42;100333.56;;;9.10;68.55
77770;BME280;66961;51.482;9.160;2023-05-19T06:32:07;100329.94;;;9.31;67.52
77770;BME280;66961;51.482;9.160;2023-05-19T06:34:32;100332.69;;;9.39;67.51
77770;BME280;66961;51.482;9.160;2023-05-19T06:36:58;100327.81;;;9.53;66.59
77770;BME280;66961;51.482;9.160;2023-05-19T06:39:23;100332.50;;;9.69;66.68
77770;BME280;66961;51.482;9.160;2023-05-19T06:41:48;100325.50;;;9.87;66.46
77770;BME280;66961;51.482;9.160;2023-05-19T06:44:14;100325.25;;;10.08;66.34
77770;BME280;66961;51.482;9.160;2023-05-19T06:46:39;100320.50;;;10.21;65.98
77770;BME280;66961;51.482;9.160;2023-05-19T06:49:04;100319.47;;;10.32;64.60
77770;BME280;66961;51.482;9.160;2023-05-19T06:51:30;100324.47;;;10.35;64.69
77770;BME280;66961;51.482;9.160;2023-05-19T06:53:55;100323.41;;;10.46;64.53
77770;BME280;66961;51.482;9.160;2023-05-19T06:56:20;100318.00;;;10.65;65.23
77770;BME280;66961;51.482;9.160;2023-05-19T06:58:46;100320.31;;;10.78;63.16
77770;BME280;66961;51.482;9.160;2023-05-19T07:01:11;100328.41;;;10.94;63.62
77770;BME280;66961;51.482;9.160;2023-05-19T07:03:36;100325.69;;;10.86;61.79
77770;BME280;66961;51.482;9.160;2023-05-19T07:06:02;100325.88;;;10.92;62.30
77770;BME280;66961;51.482;9.160;2023-05-19T07:08:27;100315.13;;;11.12;62.27
77770;BME280;66961;51.482;9.160;2023-05-19T07:10:53;100315.66;;;11.33;60.87
77770;BME280;66961;51.482;9.160;2023-05-19T07:13:18;100326.66;;;11.46;59.52
77770;BME280;66961;51.482;9.160;2023-05-19T07:15:43;100317.94;;;11.54;58.43
77770;BME280;66961;51.482;9.160;2023-05-19T07:18:08;100313.31;;;11.56;59.31
77770;BME280;66961;51.482;9.160;2023-05-19T07:20:34;100310.69;;;11.82;60.16
77770;BME280;66961;51.482;9.160;2023-05-19T07:22:59;100306.72;;;11.86;58.23
77770;BME280;66961;51.482;9.160;2023-05-19T07:25:25;100298.44;;;11.89;59.65
77770;BME280;66961;51.482;9.160;2023-05-19T07:27:50;100306.44;;;11.97;59.63
77770;BME280;66961;51.482;9.160;2023-05-19T07:30:15;100297.88;;;12.11;58.54
77770;BME280;66961;51.482;9.160;2023-05-19T07:32:41;100299.56;;;12.20;58.44
77770;BME280;66961;51.482;9.160;2023-05-19T07:35:06;100298.16;;;12.42;58.61
77770;BME280;66961;51.482;9.160;2023-05-19T07:37:31;100297.84;;;12.45;57.39
77770;BME280;66961;51.482;9.160;2023-05-19T07:39:57;100292.53;;;12.62;57.71
77770;BME280;66961;51.482;9.160;2023-05-19T07:42:22;100283.41;;;12.64;57.59
77770;BME280;66961;51.482;9.160;2023-05-19T07:44:47;100289.75;;;12.79;56.81
77770;BME280;66961;51.482;9.160;2023-05-19T07:47:13;100295.94;;;12.96;53.69
77770;BME280;66961;51.482;9.160;2023-05-19T07:49:39;100287.25;;;13.02;56.54
77770;BME280;66961;51.482;9.160;2023-05-19T07:52:04;100295.13;;;13.28;57.40
77770;BME280;66961;51.482;9.160;2023-05-19T07:54:30;100298.13;;;13.49;56.27
77770;BME280;66961;51.482;9.160;2023-05-19T07:56:55;100290.97;;;13.42;56.60
77770;BME280;66961;51.482;9.160;2023-05-19T07:59:20;100287.97;;;13.45;55.57
77770;BME280;66961;51.482;9.160;2023-05-19T08:01:46;100292.25;;;13.62;55.61
77770;BME280;66961;51.482;9.160;2023-05-19T08:04:11;100289.22;;;13.73;54.56
77770;BME280;66961;51.482;9.160;2023-05-19T08:06:36;100284.53;;;13.83;53.33
77770;BME280;66961;51.482;9.160;2023-05-19T08:09:02;100274.19;;;13.88;51.67
77770;BME280;66961;51.482;9.160;2023-05-19T08:11:27;100291.78;;;14.06;53.46
77770;BME280;66961;51.482;9.160;2023-05-19T08:13:52;100281.72;;;14.24;51.29
77770;BME280;66961;51.482;9.160;2023-05-19T08:16:17;100284.81;;;14.44;54.82
77770;BME280;66961;51.482;9.160;2023-05-19T08:18:43;100274.75;;;14.54;53.06
77770;BME280;66961;51.482;9.160;2023-05-19T08:21:08;100278.06;;;14.56;52.06
77770;BME280;66961;51.482;9.160;2023-05-19T08:23:33;100284.59;;;14.76;53.52
77770;BME280;66961;51.482;9.160;2023-05-19T08:25:59;100276.22;;;15.25;53.62
77770;BME280;66961;51.482;9.160;2023-05-19T08:28:24;100270.16;;;15.31;48.72
77770;BME280;66961;51.482;9.160;2023-05-19T08:30:50;100270.06;;;15.39;49.93
77770;BME280;66961;51.482;9.160;2023-05-19T08:33:15;100271.38;;;15.43;50.07
77770;BME280;66961;51.482;9.160;2023-05-19T08:35:41;100265.50;;;15.63;47.31
77770;BME280;66961;51.482;9.160;2023-05-19T08:38:07;100252.34;;;15.76;47.15
77770;BME280;66961;51.482;9.160;2023-05-19T08:40:32;100255.94;;;15.83;46.21
77770;BME280;66961;51.482;9.160;2023-05-19T08:42:59;100260.09;;;15.85;44.30
77770;BME280;66961;51.482;9.160;2023-05-19T08:45:25;100240.81;;;15.90;46.47
77770;BME280;66961;51.482;9.160;2023-05-19T08:47:51;100252.16;;;16.07;43.70
77770;BME280;66961;51.482;9.160;2023-05-19T08:50:20;100251.09;;;16.22;45.52
77770;BME280;66961;51.482;9.160;2023-05-19T08:53:27;100235.72;;;16.46;44.77
77770;BME280;66961;51.482;9.160;2023-05-19T08:56:00;100239.75;;;16.57;43.24
77770;BME280;66961;51.482;9.160;2023-05-19T08:58:25;100239.91;;;16.91;43.38
77770;BME280;66961;51.482;9.160;2023-05-19T09:00:51;100242.00;;;16.74;45.59
77770;BME280;66961;51.482;9.160;2023-05-19T09:03:17;100239.66;;;16.65;44.39
77770;BME280;66961;51.482;9.160;2023-05-19T09:05:42;100241.53;;;16.49;43.79
77770;BME280;66961;51.482;9.160;2023-05-19T09:08:08;100226.25;;;16.43;45.46
77770;BME280;66961;51.482;9.160;2023-05-19T09:10:33;100224.72;;;16.55;43.26
77770;BME280;66961;51.482;9.160;2023-05-19T09:12:58;100220.75;;;16.15;44.29
77770;BME280;66961;51.482;9.160;2023-05-19T09:15:27;100210.94;;;16.37;43.79
77770;BME280;66961;51.482;9.160;2023-05-19T09:18:08;100217.22;;;16.87;41.69
77770;BME280;66961;51.482;9.160;2023-05-19T09:20:43;100215.69;;;16.99;40.27
77770;BME280;66961;51.482;9.160;2023-05-19T09:23:13;100213.13;;;17.12;39.10
77770;BME280;66961;51.482;9.160;2023-05-19T09:25:48;100219.88;;;17.36;41.85
77770;BME280;66961;51.482;9.160;2023-05-19T09:28:14;100212.75;;;17.50;40.33
77770;BME280;66961;51.482;9.160;2023-05-19T09:30:46;100210.81;;;17.37;40.64
77770;BME280;66961;51.482;9.160;2023-05-19T09:33:16;100203.41;;;17.74;38.99
77770;BME280;66961;51.482;9.160;2023-05-19T09:35:46;100200.22;;;17.98;41.72
77770;BME280;66961;51.482;9.160;2023-05-19T09:38:16;100197.63;;;18.25;40.23
77770;BME280;66961;51.482;9.160;2023-05-19T09:40:41;100206.28;;;18.13;41.65
77770;BME280;66961;51.482;9.160;2023-05-19T09:43:07;100201.16;;;18.18;40.52
77770;BME280;66961;51.482;9.160;2023-05-19T09:45:32;100194.75;;;18.33;39.39
77770;BME280;66961;51.482;9.160;2023-05-19T09:48:02;100195.38;;;18.35;39.92
77770;BME280;66961;51.482;9.160;2023-05-19T09:50:28;100196.03;;;18.43;37.21
77770;BME280;66961;51.482;9.160;2023-05-19T09:52:53;100194.31;;;18.16;36.43
77770;BME280;66961;51.482;9.160;2023-05-19T09:55:18;100189.81;;;17.75;39.06
77770;BME280;66961;51.482;9.160;2023-05-19T09:57:44;100181.13;;;17.67;38.90
77770;BME280;66961;51.482;9.160;2023-05-19T10:00:09;100182.25;;;17.51;37.99
77770;BME280;66961;51.482;9.160;2023-05-19T10:02:35;100181.97;;;17.74;38.03
77770;BME280;66961;51.482;9.160;2023-05-19T10:05:02;100189.81;;;18.30;39.93
77770;BME280;66961;51.482;9.160;2023-05-19T10:07:28;100194.00;;;18.52;39.21
77770;BME280;66961;51.482;9.160;2023-05-19T10:09:54;100188.88;;;18.64;38.44
77770;BME280;66961;51.482;9.160;2023-05-19T10:12:20;100185.56;;;19.08;39.62
77770;BME280;66961;51.482;9.160;2023-05-19T10:14:47;100183.28;;;18.72;36.73
77770;BME280;66961;51.482;9.160;2023-05-19T10:17:13;100176.69;;;18.74;36.55
77770;BME280;66961;51.482;9.160;2023-05-19T10:19:39;100178.13;;;18.64;37.50
77770;BME280;66961;51.482;9.160;2023-05-19T10:22:05;100166.34;;;18.91;34.96
77770;BME280;66961;51.482;9.160;2023-05-19T10:24:30;100174.63;;;19.09;36.93
77770;BME280;66961;51.482;9.160;2023-05-19T10:27:00;100174.34;;;19.44;35.77
77770;BME280;66961;51.482;9.160;2023-05-19T10:29:29;100176.94;;;19.83;36.19
77770;BME280;66961;51.482;9.160;2023-05-19T10:31:58;100163.63;;;20.40;36.75
77770;BME280;66961;51.482;9.160;2023-05-19T10:40:19;100157.78;;;19.60;36.13
77770;BME280;66961;51.482;9.160;2023-05-19T10:45:36;100159.88;;;19.45;34.52
77770;BME280;66961;51.482;9.160;2023-05-19T10:48:18;100158.00;;;19.59;35.85
77770;BME280;66961;51.482;9.160;2023-05-19T10:50:45;100159.66;;;19.60;34.74
77770;BME280;66961;51.482;9.160;2023-05-19T10:53:19;100160.94;;;19.95;35.58
77770;BME280;66961;51.482;9.160;2023-05-19T10:55:52;100158.16;;;20.15;32.39
77770;BME280;66961;51.482;9.160;2023-05-19T10:58:37;100160.16;;;20.64;34.77
77770;BME280;66961;51.482;9.160;2023-05-19T11:01:06;100159.75;;;21.10;34.39
77770;BME280;66961;51.482;9.160;2023-05-19T11:03:43;100154.06;;;20.75;34.71
77770;BME280;66961;51.482;9.160;2023-05-19T11:06:31;100152.88;;;20.33;34.04
77770;BME280;66961;51.482;9.160;2023-05-19T11:08:59;100150.78;;;20.35;33.92
77770;BME280;66961;51.482;9.160;2023-05-19T11:11:25;100149.97;;;20.35;35.58
77770;BME280;66961;51.482;9.160;2023-05-19T11:13:53;100131.50;;;20.45;34.08
77770;BME280;66961;51.482;9.160;2023-05-19T11:16:25;100139.53;;;19.75;33.44
77770;BME280;66961;51.482;9.160;2023-05-19T11:18:53;100136.50;;;19.52;33.17
77770;BME280;66961;51.482;9.160;2023-05-19T11:21:18;100140.38;;;19.69;34.08
77770;BME280;66961;51.482;9.160;2023-05-19T11:23:44;100132.78;;;19.98;32.17
77770;BME280;66961;51.482;9.160;2023-05-19T11:26:09;100144.78;;;20.40;32.99
77770;BME280;66961;51.482;9.160;2023-05-19T11:28:35;100136.47;;;20.41;33.91
77770;BME280;66961;51.482;9.160;2023-05-19T11:31:01;100134.44;;;19.99;32.52
77770;BME280;66961;51.482;9.160;2023-05-19T11:33:26;100139.72;;;20.19;32.05
77770;BME280;66961;51.482;9.160;2023-05-19T11:35:53;100142.81;;;20.22;33.32
77770;BME280;66961;51.482;9.160;2023-05-19T11:38:19;100135.88;;;20.89;32.46
77770;BME280;66961;51.482;9.160;2023-05-19T11:40:46;100135.75;;;21.45;31.10
77770;BME280;66961;51.482;9.160;2023-05-19T11:43:12;100131.19;;;21.46;29.93
77770;BME280;66961;51.482;9.160;2023-05-19T11:45:38;100122.84;;;21.84;30.33
77770;BME280;66961;51.482;9.160;2023-05-19T11:48:04;100124.03;;;22.06;29.43
77770;BME280;66961;51.482;9.160;2023-05-19T11:50:29;100124.63;;;22.08;30.64
77770;BME280;66961;51.482;9.160;2023-05-19T11:52:55;100128.44;;;22.72;29.42
77770;BME280;66961;51.482;9.160;2023-05-19T11:55:21;100120.28;;;22.61;31.19
77770;BME280;66961;51.482;9.160;2023-05-19T11:58:04;100111.13;;;21.90;29.63
77770;BME280;66961;51.482;9.160;2023-05-19T12:00:34;100120.28;;;21.23;31.89
77770;BME280;66961;51.482;9.160;2023-05-19T12:02:59;100119.69;;;20.46;32.91
77770;BME280;66961;51.482;9.160;2023-05-19T12:05:25;100122.84;;;20.68;33.06
77770;BME280;66961;51.482;9.160;2023-05-19T12:07:51;100113.13;;;20.29;34.75
77770;BME280;66961;51.482;9.160;2023-05-19T12:10:25;100120.88;;;20.19;34.96
77770;BME280;66961;51.482;9.160;2023-05-19T12:12:50;100115.03;;;20.60;33.22
77770;BME280;66961;51.482;9.160;2023-05-19T12:15:19;100108.53;;;20.04;33.50
77770;BME280;66961;51.482;9.160;2023-05-19T12:17:48;100105.91;;;19.91;32.43
77770;BME280;66961;51.482;9.160;2023-05-19T12:20:13;100096.38;;;19.44;33.92
77770;BME280;66961;51.482;9.160;2023-05-19T12:22:39;100105.81;;;20.11;33.86
77770;BME280;66961;51.482;9.160;2023-05-19T12:25:04;100110.22;;;19.47;34.37
77770;BME280;66961;51.482;9.160;2023-05-19T12:27:34;100102.44;;;19.26;33.91
77770;BME280;66961;51.482;9.160;2023-05-19T12:29:59;100098.41;;;20.31;34.02
77770;BME280;66961;51.482;9.160;2023-05-19T12:32:27;100099.97;;;20.52;32.81
77770;BME280;66961;51.482;9.160;2023-05-19T12:34:55;100104.66;;;19.94;32.24
77770;BME280;66961;51.482;9.160;2023-05-19T12:37:21;100102.81;;;19.94;33.04
77770;BME280;66961;51.482;9.160;2023-05-19T12:39:49;100102.88;;;19.81;34.08
77770;BME280;66961;51.482;9.160;2023-05-19T12:42:15;100103.84;;;19.35;34.35
77770;BME280;66961;51.482;9.160;2023-05-19T12:44:45;100101.41;;;19.27;35.41
77770;BME280;66961;51.482;9.160;2023-05-19T12:47:12;100102.28;;;19.08;34.23
77770;BME280;66961;51.482;9.160;2023-05-19T12:49:53;100102.00;;;19.87;34.89
77770;BME280;66961;51.482;9.160;2023-05-19T12:52:18;100091.75;;;21.08;32.32
77770;BME280;66961;51.482;9.160;2023-05-19T12:54:43;100091.22;;;22.21;31.17
77770;BME280;66961;51.482;9.160;2023-05-19T12:57:09;100095.44;;;22.82;28.04
77770;BME280;66961;51.482;9.160;2023-05-19T12:59:35;100083.94;;;22.87;27.58
77770;BME280;66961;51.482;9.160;2023-05-19T13:02:00;100083.53;;;23.18;27.76
77770;BME280;66961;51.482;9.160;2023-05-19T13:04:25;100093.06;;;22.74;30.39
77770;BME280;66961;51.482;9.160;2023-05-19T13:06:52;100096.59;;;21.91;31.07
77770;BME280;66961;51.482;9.160;2023-05-19T13:09:17;100085.72;;;21.50;31.52